Terminal Aerodrome Forecast
Issued by NWS Upton, NY

Home | Current Version | Previous Version | Text Only | Print | Product List | Glossary On
Versions: 1 2 3 4 5 6 7 8 9 10 11 12 13 14 15 16 17 18 19 20 21 22 23 24 25 26 27 28 29 30 31 32 33
771
FTUS41 KOKX 231152
TAFLGA
TAF
KLGA 231152Z 2312/2412 VRB03KT P6SM SCT015 SCT030 OVC060
      TEMPO 2312/2313 BKN015
     FM231500 05008KT P6SM SCT040 BKN060
     FM232100 11010KT P6SM BKN045 PROB30 2402/2403 4SM -SHRA BKN030
     FM240300 11010KT P6SM VCSH OVC025 PROB30 2403/2406 4SM -SHRA
     FM240600 10010KT 5SM -SHRA OVC020
     FM240800 09011KT 5SM -SHRA OVC015=

USA.gov is the U.S. government's official web portal to all federal, state and local government web resources and services.